METAR
MSSS 260250Z 18004KT 9999 FEW023 FEW040CB SCT057 24/22 Q1015 A2998 MSSS 260150Z 19004KT 9999 FEW023 24/22 Q1014 A2996 MSSS 260050Z 21003KT 9999 FEW023 25/22 Q1013 A2994 TAF MSSS 252125Z 2600/2624 16005KT 9999 SCT027 FEW037CB TX31/2620Z TN21/2612Z FM260200 34004KT TEMPO 2604/2606 36010KT 5000 TSRA BKN023 SCT033CB FM260600 00000KT 8000 SCT013 BKN040
TAF
MSSS 252125Z 2600/2624 16005KT 9999 SCT027 FEW037CB TX31/2620Z TN21/2612Z FM260200 34004KT TEMPO 2604/2606 36010KT 5000 TSRA BKN023 SCT033CB FM260600 00000KT 8000 SCT013 BKN040

Cámaras Aeroclub

Norte

Este

Sur

Oeste

AIS/AIP El Salvador

Autoridad de Aviación Civil (AAC) El Salvador

VER DOCUMENTO